Time;durP1;ratioP1;P1;durP2;ratioP2;P2;SDS_P1;SDS_P2;PMS_P1;PMS_P2;Temp;Humidity;BMP_temperature;BMP_pressure;BME280_temperature;BME280_humidity;BME280_pressure;Samples;Min_cycle;Max_cycle;Signal;HPM_P1;HPM_P2
2021/09/03 00:01:38;;;;;;;11.70;7.25;;;19.70;56.80;;;;;;5041236;28;20220;-86
2021/09/03 00:04:05;;;;;;;11.15;6.75;;;19.70;56.90;;;;;;5042536;28;20195;-85
2021/09/03 00:06:31;;;;;;;14.20;7.63;;;19.70;56.90;;;;;;5059134;28;20181;-85
2021/09/03 00:08:57;;;;;;;12.30;7.22;;;19.70;57.00;;;;;;5058433;28;20162;-84
2021/09/03 00:11:23;;;;;;;11.43;6.85;;;19.70;57.00;;;;;;5042211;28;20233;-84
2021/09/03 00:13:49;;;;;;;12.60;7.00;;;19.70;56.90;;;;;;5041909;28;20166;-85
2021/09/03 00:16:18;;;;;;;12.32;6.90;;;19.70;56.80;;;;;;5025144;28;20206;-84
2021/09/03 00:18:49;;;;;;;13.23;7.60;;;19.70;56.80;;;;;;5057849;28;20173;-86
2021/09/03 00:21:17;;;;;;;11.95;6.88;;;19.70;56.90;;;;;;5041066;28;20178;-83
2021/09/03 00:23:44;;;;;;;12.25;7.38;;;19.70;56.90;;;;;;5057925;28;20178;-83
2021/09/03 00:26:11;;;;;;;11.95;6.53;;;19.70;56.80;;;;;;5040250;28;20186;-85
2021/09/03 00:28:38;;;;;;;12.40;6.85;;;19.70;56.90;;;;;;5040656;28;20217;-84
2021/09/03 00:31:07;;;;;;;12.52;6.78;;;19.70;56.80;;;;;;5040494;28;20545;-84
2021/09/03 00:33:37;;;;;;;12.85;7.53;;;19.70;56.80;;;;;;5041904;28;20201;-83
2021/09/03 00:36:04;;;;;;;11.57;6.82;;;19.60;56.80;;;;;;5041091;28;20672;-84
2021/09/03 00:38:30;;;;;;;12.57;7.57;;;19.70;56.90;;;;;;5023020;28;20181;-86
2021/09/03 00:40:57;;;;;;;11.68;7.15;;;19.70;56.90;;;;;;5041850;28;20200;-84
2021/09/03 00:43:25;;;;;;;11.52;6.93;;;19.70;57.00;;;;;;5041807;28;20154;-84
2021/09/03 00:45:51;;;;;;;11.27;6.50;;;19.70;56.90;;;;;;5040856;28;20240;-85
2021/09/03 00:48:17;;;;;;;11.88;6.75;;;19.70;56.90;;;;;;5058171;28;20166;-84
2021/09/03 00:50:47;;;;;;;12.85;7.18;;;19.70;57.00;;;;;;5057997;28;20245;-84
2021/09/03 00:53:13;;;;;;;12.05;7.30;;;19.70;57.00;;;;;;5023760;28;20174;-85
2021/09/03 00:55:43;;;;;;;11.35;6.78;;;19.70;56.90;;;;;;5041162;28;20194;-85
2021/09/03 00:58:15;;;;;;;9.32;5.88;;;19.60;56.90;;;;;;5057199;28;20213;-84
2021/09/03 01:00:45;;;;;;;11.90;7.07;;;19.70;57.10;;;;;;5057203;28;20637;-84
2021/09/03 01:03:11;;;;;;;12.63;7.05;;;19.70;57.10;;;;;;5040040;28;20186;-84
2021/09/03 01:05:37;;;;;;;12.80;7.75;;;19.70;57.00;;;;;;5057689;28;20735;-84
2021/09/03 01:08:03;;;;;;;12.10;6.95;;;19.70;57.00;;;;;;5057876;28;20154;-85
2021/09/03 01:10:29;;;;;;;11.95;7.20;;;19.70;57.10;;;;;;5057182;28;20189;-85
2021/09/03 01:12:55;;;;;;;10.65;6.80;;;19.70;57.20;;;;;;5024609;28;20174;-84
2021/09/03 01:15:21;;;;;;;11.93;6.78;;;19.60;57.10;;;;;;5042128;28;20265;-86
2021/09/03 01:17:50;;;;;;;12.38;7.07;;;19.70;57.10;;;;;;5057921;28;20165;-86
2021/09/03 01:20:17;;;;;;;11.48;6.85;;;19.70;57.30;;;;;;5024948;28;20178;-84
2021/09/03 01:22:47;;;;;;;12.52;7.05;;;19.70;57.20;;;;;;5041941;28;20166;-83
2021/09/03 01:25:15;;;;;;;12.88;7.43;;;19.60;57.00;;;;;;5024232;28;20220;-84
2021/09/03 01:27:41;;;;;;;12.15;7.63;;;19.70;57.20;;;;;;5057916;28;20180;-84
2021/09/03 01:30:11;;;;;;;12.73;7.57;;;19.60;57.30;;;;;;5058047;28;20177;-87
2021/09/03 01:32:37;;;;;;;10.85;6.68;;;19.60;57.60;;;;;;5040778;28;20193;-84
2021/09/03 01:35:07;;;;;;;12.27;7.43;;;19.60;57.20;;;;;;5057627;28;20196;-85
2021/09/03 01:37:33;;;;;;;12.40;6.88;;;19.60;57.30;;;;;;5023880;28;20277;-84
2021/09/03 01:39:59;;;;;;;12.98;7.20;;;19.70;57.50;;;;;;5057546;28;20190;-84
2021/09/03 01:42:25;;;;;;;13.35;7.13;;;19.60;57.30;;;;;;5057537;28;20225;-84
2021/09/03 01:44:51;;;;;;;12.07;7.35;;;19.60;57.30;;;;;;5040373;28;20608;-84
2021/09/03 01:47:17;;;;;;;12.40;6.57;;;19.60;57.00;;;;;;5057057;28;20165;-84
2021/09/03 01:49:44;;;;;;;12.77;6.80;;;19.60;57.00;;;;;;5041630;28;20162;-84
2021/09/03 01:52:09;;;;;;;11.35;6.80;;;19.60;57.10;;;;;;5060964;28;20146;-84
2021/09/03 01:54:35;;;;;;;12.07;6.65;;;19.60;57.10;;;;;;5061343;28;20201;-84
2021/09/03 01:57:01;;;;;;;12.43;7.28;;;19.60;57.00;;;;;;5061453;28;20288;-84
2021/09/03 01:59:27;;;;;;;11.93;6.75;;;19.60;57.00;;;;;;5061370;28;20182;-86
2021/09/03 02:01:57;;;;;;;13.63;7.28;;;19.60;57.10;;;;;;5045057;28;20575;-84
2021/09/03 02:04:23;;;;;;;12.00;6.90;;;19.60;57.00;;;;;;5027621;28;20209;-84
2021/09/03 02:06:49;;;;;;;12.13;7.05;;;19.60;57.00;;;;;;5060717;28;20259;-83
2021/09/03 02:09:15;;;;;;;11.63;7.28;;;19.50;56.90;;;;;;5060331;28;20154;-85
2021/09/03 02:11:41;;;;;;;12.82;7.35;;;19.60;57.00;;;;;;5060567;28;20592;-84
2021/09/03 02:14:07;;;;;;;11.88;7.15;;;19.60;57.10;;;;;;5028349;28;20158;-85
2021/09/03 02:16:33;;;;;;;12.98;6.90;;;19.50;57.00;;;;;;5061010;28;20680;-84
2021/09/03 02:18:59;;;;;;;12.38;7.07;;;19.60;57.00;;;;;;5044213;28;20190;-84
2021/09/03 02:21:25;;;;;;;12.23;7.13;;;19.60;57.00;;;;;;5060680;28;20155;-84
2021/09/03 02:23:52;;;;;;;11.80;6.95;;;19.60;57.10;;;;;;5044141;28;20147;-84
2021/09/03 02:26:22;;;;;;;12.43;7.50;;;19.60;57.10;;;;;;5043869;28;20166;-84
2021/09/03 02:28:48;;;;;;;11.98;6.65;;;19.60;57.00;;;;;;5043649;28;20269;-83
2021/09/03 02:31:18;;;;;;;12.65;7.32;;;19.60;57.00;;;;;;5044380;28;20197;-83
2021/09/03 02:33:48;;;;;;;12.02;6.90;;;19.60;57.00;;;;;;5026446;28;20232;-84
2021/09/03 02:36:18;;;;;;;12.10;6.88;;;19.60;57.20;;;;;;5043302;28;20280;-83
2021/09/03 02:38:45;;;;;;;12.13;7.05;;;19.60;57.10;;;;;;5043482;28;20185;-85
2021/09/03 02:41:10;;;;;;;12.00;7.30;;;19.60;57.10;;;;;;5060547;28;20169;-84
2021/09/03 02:43:36;;;;;;;12.55;7.00;;;19.60;57.00;;;;;;5027589;28;20159;-85
2021/09/03 02:46:07;;;;;;;11.98;7.07;;;19.60;57.20;;;;;;5044173;28;20644;-84
2021/09/03 02:48:37;;;;;;;11.32;6.68;;;19.60;57.10;;;;;;5043185;28;20184;-85
2021/09/03 02:51:03;;;;;;;13.35;7.05;;;19.60;57.10;;;;;;5026181;28;20184;-84
2021/09/03 02:53:29;;;;;;;11.10;6.75;;;19.50;57.00;;;;;;5043472;28;20210;-85
2021/09/03 02:55:55;;;;;;;11.80;7.28;;;19.50;57.10;;;;;;5060639;28;20194;-84
2021/09/03 02:58:26;;;;;;;13.20;6.88;;;19.50;57.00;;;;;;5060992;28;20170;-84
2021/09/03 03:00:52;;;;;;;12.00;6.68;;;19.60;57.20;;;;;;5025676;28;20660;-84
2021/09/03 03:03:18;;;;;;;10.98;6.55;;;19.60;57.10;;;;;;5042550;28;20226;-85
2021/09/03 03:05:44;;;;;;;11.90;7.00;;;19.60;57.20;;;;;;5061439;28;20177;-84
2021/09/03 03:08:11;;;;;;;12.27;6.50;;;19.50;57.10;;;;;;5060057;28;20150;-85
2021/09/03 03:10:37;;;;;;;11.30;6.63;;;19.60;57.10;;;;;;5059766;28;20154;-84
2021/09/03 03:13:20;;;;;;;13.50;7.05;;;19.60;57.10;;;;;;5060256;28;20685;-86
2021/09/03 03:15:50;;;;;;;12.25;7.28;;;19.60;57.10;;;;;;5059819;28;20308;-85
2021/09/03 03:18:21;;;;;;;10.60;6.60;;;19.50;57.10;;;;;;5060003;28;20202;-84
2021/09/03 03:20:50;;;;;;;11.30;6.70;;;19.50;57.30;;;;;;5026430;28;20216;-84
2021/09/03 03:23:19;;;;;;;13.60;7.35;;;19.50;57.20;;;;;;5026938;28;20178;-85
2021/09/03 03:25:49;;;;;;;13.25;7.15;;;19.50;57.10;;;;;;5058404;28;20178;-85
2021/09/03 03:28:18;;;;;;;10.35;6.28;;;19.50;57.00;;;;;;5026061;28;20593;-85
2021/09/03 03:30:48;;;;;;;11.88;6.88;;;19.50;57.10;;;;;;5043132;28;20205;-85
2021/09/03 03:33:18;;;;;;;12.73;7.45;;;19.60;57.10;;;;;;5026194;28;20261;-85
2021/09/03 03:35:47;;;;;;;12.90;7.05;;;19.60;57.20;;;;;;5043308;28;20221;-84
2021/09/03 03:38:17;;;;;;;10.57;6.40;;;19.50;57.10;;;;;;5026191;28;20181;-86
2021/09/03 03:40:47;;;;;;;11.82;7.00;;;19.60;57.00;;;;;;5026106;28;20178;-85
2021/09/03 03:43:15;;;;;;;11.20;6.75;;;19.60;57.10;;;;;;5042190;28;20233;-86
2021/09/03 03:45:46;;;;;;;11.10;6.60;;;19.50;57.40;;;;;;5042652;28;20185;-86
2021/09/03 03:48:16;;;;;;;12.38;7.28;;;19.60;57.20;;;;;;5059569;28;20184;-84
2021/09/03 03:50:44;;;;;;;12.25;6.82;;;19.60;57.30;;;;;;5042347;28;20660;-84
2021/09/03 03:53:13;;;;;;;11.13;6.68;;;19.50;57.20;;;;;;5042625;28;20189;-84
2021/09/03 03:55:41;;;;;;;11.73;6.85;;;19.50;57.10;;;;;;5025655;28;20221;-83
2021/09/03 03:58:12;;;;;;;12.60;7.13;;;19.50;57.00;;;;;;5042558;28;20189;-85
2021/09/03 04:00:39;;;;;;;10.13;6.40;;;19.50;57.10;;;;;;5025296;28;20182;-85
2021/09/03 04:03:07;;;;;;;10.80;7.18;;;19.50;57.10;;;;;;5025137;28;20178;-85
2021/09/03 04:05:34;;;;;;;11.43;6.78;;;19.50;57.20;;;;;;5025362;28;20182;-87
2021/09/03 04:08:05;;;;;;;11.70;6.85;;;19.50;57.20;;;;;;5041285;28;20190;-84
2021/09/03 04:10:31;;;;;;;10.90;6.65;;;19.50;57.20;;;;;;5041295;28;20190;-84
2021/09/03 04:12:58;;;;;;;10.50;6.57;;;19.50;57.10;;;;;;5058111;28;20158;-85
2021/09/03 04:15:28;;;;;;;10.18;6.05;;;19.50;57.10;;;;;;5024300;28;20738;-84
2021/09/03 04:17:56;;;;;;;11.55;6.55;;;19.50;57.10;;;;;;5024732;28;20719;-84
2021/09/03 04:20:23;;;;;;;12.35;6.97;;;19.60;57.20;;;;;;5058032;28;20246;-84
2021/09/03 04:22:50;;;;;;;10.52;6.18;;;19.50;57.30;;;;;;5025223;28;20185;-84
2021/09/03 04:25:21;;;;;;;10.45;6.30;;;19.50;56.90;;;;;;5042094;28;20599;-85
2021/09/03 04:27:53;;;;;;;10.07;5.18;;;19.50;56.80;;;;;;5041787;28;20186;-84
2021/09/03 04:30:20;;;;;;;9.88;5.97;;;19.50;55.90;;;;;;5041226;28;20268;-85
2021/09/03 04:32:46;;;;;;;9.00;5.55;;;19.50;55.80;;;;;;5057895;28;20649;-85
2021/09/03 04:35:13;;;;;;;8.63;5.03;;;19.50;55.50;;;;;;5041833;28;20249;-85
2021/09/03 04:37:46;;;;;;;8.43;5.30;;;19.50;55.60;;;;;;5024159;28;20546;-84
2021/09/03 04:40:18;;;;;;;7.75;4.57;;;19.50;55.80;;;;;;5041051;28;20186;-83
2021/09/03 04:42:45;;;;;;;9.68;5.53;;;19.50;55.50;;;;;;5024670;28;20180;-84
2021/09/03 04:45:11;;;;;;;8.60;4.85;;;19.40;55.60;;;;;;5041197;28;20551;-84
2021/09/03 04:47:38;;;;;;;7.97;4.85;;;19.40;55.50;;;;;;5058083;28;20178;-83
2021/09/03 04:50:09;;;;;;;6.88;4.00;;;19.40;55.20;;;;;;5040949;28;20182;-84
2021/09/03 04:52:43;;;;;;;8.95;5.18;;;19.40;55.00;;;;;;5023820;28;20181;-84
2021/09/03 04:55:11;;;;;;;8.15;4.68;;;19.40;55.10;;;;;;5040837;28;20209;-83
2021/09/03 04:57:41;;;;;;;7.65;4.45;;;19.40;55.10;;;;;;5040062;28;20193;-83
2021/09/03 05:00:12;;;;;;;7.78;4.47;;;19.40;54.90;;;;;;5024193;28;20270;-84
2021/09/03 05:02:43;;;;;;;7.32;4.40;;;19.40;54.90;;;;;;5023924;28;20185;-84
2021/09/03 05:05:10;;;;;;;6.88;4.40;;;19.40;55.00;;;;;;5040611;28;20186;-85
2021/09/03 05:07:36;;;;;;;7.50;4.32;;;19.30;54.80;;;;;;5040938;28;20216;-84
2021/09/03 05:10:04;;;;;;;6.45;3.95;;;19.30;54.70;;;;;;5056800;28;20186;-85
2021/09/03 05:12:31;;;;;;;8.07;4.40;;;19.40;54.60;;;;;;5040625;28;20577;-85
2021/09/03 05:15:01;;;;;;;6.40;3.90;;;19.30;54.60;;;;;;5057278;28;20197;-84
2021/09/03 05:17:31;;;;;;;7.30;4.15;;;19.30;54.60;;;;;;5073033;28;20177;-83
2021/09/03 05:20:01;;;;;;;6.30;3.85;;;19.30;54.50;;;;;;5026059;28;20233;-84
2021/09/03 05:22:27;;;;;;;8.23;4.30;;;19.30;54.30;;;;;;5026612;28;20190;-84
2021/09/03 05:24:53;;;;;;;6.00;3.47;;;19.30;54.50;;;;;;5041252;28;20645;-85
2021/09/03 05:27:20;;;;;;;5.45;3.42;;;19.30;54.30;;;;;;5057530;28;20154;-85
2021/09/03 05:29:46;;;;;;;6.28;3.70;;;19.30;54.20;;;;;;5040829;28;20174;-85
2021/09/03 05:32:16;;;;;;;5.65;3.42;;;19.30;54.20;;;;;;5058866;28;20172;-84
2021/09/03 05:34:49;;;;;;;7.47;4.13;;;19.40;53.90;;;;;;5041874;28;20569;-84
2021/09/03 05:37:15;;;;;;;5.78;3.35;;;19.40;53.90;;;;;;5040132;28;20695;-84
2021/09/03 05:39:40;;;;;;;5.63;3.45;;;19.40;53.60;;;;;;5039378;28;20173;-84
2021/09/03 05:42:07;;;;;;;5.13;3.25;;;19.40;53.30;;;;;;5056354;28;20147;-84
2021/09/03 05:44:34;;;;;;;5.65;3.25;;;19.50;53.30;;;;;;5056417;28;20165;-84
2021/09/03 05:47:00;;;;;;;5.93;3.58;;;19.50;53.40;;;;;;5057879;28;20253;-84
2021/09/03 05:49:26;;;;;;;5.13;3.35;;;19.40;53.50;;;;;;5036550;28;20174;-83
2021/09/03 05:51:52;;;;;;;5.53;3.58;;;19.50;53.30;;;;;;5046151;28;20163;-83
2021/09/03 05:54:20;;;;;;;4.35;3.03;;;19.50;53.20;;;;;;5056997;28;20161;-85
2021/09/03 05:56:48;;;;;;;5.40;3.40;;;19.60;53.00;;;;;;5056317;28;20185;-85
2021/09/03 05:59:16;;;;;;;4.80;2.97;;;19.60;52.90;;;;;;5056559;28;20273;-87
2021/09/03 06:01:44;;;;;;;5.50;3.05;;;19.50;52.70;;;;;;5040065;28;20184;-85
2021/09/03 06:04:12;;;;;;;5.50;3.30;;;19.50;52.90;;;;;;5040299;28;20665;-84
2021/09/03 06:06:43;;;;;;;5.50;3.47;;;19.50;52.90;;;;;;5023313;28;20193;-85
2021/09/03 06:09:11;;;;;;;5.55;3.28;;;19.50;53.00;;;;;;5038904;28;20288;-86
2021/09/03 06:11:37;;;;;;;5.68;3.20;;;19.50;53.00;;;;;;5023299;28;20240;-84
2021/09/03 06:14:04;;;;;;;5.10;3.13;;;19.50;52.90;;;;;;5040254;28;20170;-84
2021/09/03 06:16:31;;;;;;;5.63;3.42;;;19.50;53.00;;;;;;5038676;28;20245;-84
2021/09/03 06:18:58;;;;;;;5.78;3.30;;;19.50;53.00;;;;;;5039725;28;20615;-83
2021/09/03 06:21:26;;;;;;;5.18;2.97;;;19.50;53.00;;;;;;5056383;28;20182;-83
2021/09/03 06:23:57;;;;;;;6.00;3.55;;;19.50;52.90;;;;;;5022824;28;20660;-84
2021/09/03 06:26:24;;;;;;;6.38;3.47;;;19.50;52.90;;;;;;5023310;28;20186;-83
2021/09/03 06:28:49;;;;;;;5.35;3.53;;;19.60;53.00;;;;;;5039661;28;20178;-84
2021/09/03 06:31:20;;;;;;;5.63;2.95;;;19.60;52.80;;;;;;5040404;28;20163;-83
2021/09/03 06:33:49;;;;;;;5.30;3.03;;;19.50;52.70;;;;;;5056220;28;20266;-83
2021/09/03 06:36:17;;;;;;;4.78;2.92;;;19.50;52.60;;;;;;5040905;28;20720;-84
2021/09/03 06:38:45;;;;;;;4.28;2.53;;;19.60;52.60;;;;;;5043173;28;20182;-83
2021/09/03 06:41:13;;;;;;;4.50;2.70;;;19.60;52.50;;;;;;5043604;28;20189;-84
2021/09/03 06:43:41;;;;;;;5.00;3.10;;;19.60;52.30;;;;;;5043815;28;20190;-83
2021/09/03 06:46:09;;;;;;;4.70;2.95;;;19.60;52.40;;;;;;5026994;28;20236;-82
2021/09/03 06:48:37;;;;;;;5.18;3.00;;;19.60;52.30;;;;;;5043418;28;20178;-83
2021/09/03 06:51:04;;;;;;;5.20;3.45;;;19.60;52.20;;;;;;5044354;28;20265;-84
2021/09/03 06:53:32;;;;;;;4.32;2.90;;;19.60;52.10;;;;;;5043417;28;20644;-83
2021/09/03 06:55:59;;;;;;;5.55;3.17;;;19.60;52.10;;;;;;5026983;28;20225;-83
2021/09/03 06:58:26;;;;;;;4.05;2.35;;;19.60;52.00;;;;;;5044546;28;20273;-83
2021/09/03 07:00:56;;;;;;;6.03;3.65;;;19.70;51.90;;;;;;5043506;28;20185;-83
2021/09/03 07:03:23;;;;;;;5.63;3.00;;;19.70;51.90;;;;;;5060401;28;20220;-83
2021/09/03 07:05:51;;;;;;;3.97;2.42;;;19.60;51.90;;;;;;5043248;28;20186;-83
2021/09/03 07:08:22;;;;;;;4.80;3.30;;;19.60;51.90;;;;;;5058938;28;20178;-85
2021/09/03 07:10:51;;;;;;;4.43;2.92;;;19.60;51.90;;;;;;5027427;28;20252;-82
2021/09/03 07:13:18;;;;;;;5.70;2.60;;;19.60;51.80;;;;;;5031806;28;20240;-83
2021/09/03 07:15:48;;;;;;;4.50;2.90;;;19.60;52.30;;;;;;5025663;28;20281;-83
2021/09/03 07:18:15;;;;;;;3.78;2.55;;;19.60;51.60;;;;;;5059759;28;20174;-83
2021/09/03 07:20:48;;;;;;;4.45;2.72;;;19.60;51.30;;;;;;5044534;28;20178;-83
2021/09/03 07:23:19;;;;;;;4.32;2.67;;;19.70;51.50;;;;;;5047279;28;20204;-83
2021/09/03 07:25:51;;;;;;;4.13;2.75;;;19.60;51.40;;;;;;5031385;28;20526;-84
2021/09/03 07:28:18;;;;;;;5.07;2.67;;;19.60;51.40;;;;;;5063850;28;20217;-83
2021/09/03 07:30:46;;;;;;;3.83;2.45;;;19.60;51.20;;;;;;5065249;28;20214;-83
2021/09/03 07:33:12;;;;;;;4.03;2.53;;;19.60;51.00;;;;;;5048828;28;20155;-83
2021/09/03 07:35:44;;;;;;;4.15;2.58;;;19.70;51.10;;;;;;5047566;28;20623;-83
2021/09/03 07:38:11;;;;;;;3.53;2.13;;;19.60;51.00;;;;;;5047216;28;20177;-84
2021/09/03 07:40:41;;;;;;;3.97;2.50;;;19.60;50.90;;;;;;5046694;28;20166;-83
2021/09/03 07:43:07;;;;;;;2.85;2.05;;;19.60;51.00;;;;;;5046240;28;20174;-83
2021/09/03 07:45:38;;;;;;;4.18;2.40;;;19.60;51.00;;;;;;5064209;28;20158;-83
2021/09/03 07:48:09;;;;;;;3.47;2.28;;;19.60;50.80;;;;;;5045783;28;20186;-83
2021/09/03 07:50:38;;;;;;;4.10;2.15;;;19.70;50.60;;;;;;5028635;28;20186;-84
2021/09/03 07:53:05;;;;;;;4.07;2.25;;;19.70;50.50;;;;;;5044231;28;20684;-83
2021/09/03 07:55:31;;;;;;;3.08;2.15;;;19.70;50.60;;;;;;5060494;28;20281;-83
2021/09/03 07:57:57;;;;;;;3.83;2.50;;;19.70;50.40;;;;;;5060640;28;20147;-84
2021/09/03 08:00:23;;;;;;;3.00;2.20;;;19.70;50.30;;;;;;5056659;28;20617;-85
2021/09/03 08:02:55;;;;;;;4.22;2.47;;;19.80;50.40;;;;;;5060227;28;20154;-86
2021/09/03 08:05:21;;;;;;;3.80;2.38;;;19.70;50.50;;;;;;5062208;28;20249;-86
2021/09/03 08:07:50;;;;;;;4.70;2.50;;;19.70;50.30;;;;;;5044754;28;20189;-86
2021/09/03 08:10:20;;;;;;;3.72;2.30;;;19.70;50.50;;;;;;5042044;28;20182;-86
2021/09/03 08:12:47;;;;;;;4.70;2.70;;;19.70;50.30;;;;;;5028452;28;20530;-87
2021/09/03 08:15:18;;;;;;;4.35;2.40;;;19.70;50.30;;;;;;5043479;28;20201;-86
2021/09/03 08:17:47;;;;;;;4.22;2.35;;;19.70;50.30;;;;;;5058899;28;20203;-86
2021/09/03 08:20:18;;;;;;;3.58;2.10;;;19.70;50.40;;;;;;5026394;28;20189;-86
2021/09/03 08:22:47;;;;;;;4.53;2.40;;;19.70;50.50;;;;;;5045765;28;20199;-87
2021/09/03 08:25:16;;;;;;;3.97;2.35;;;19.70;50.30;;;;;;5053162;28;20181;-86
2021/09/03 08:27:42;;;;;;;4.65;2.70;;;19.70;50.40;;;;;;5065827;28;20145;-85
2021/09/03 08:30:10;;;;;;;3.97;2.45;;;19.70;50.40;;;;;;5033554;28;20180;-85
2021/09/03 08:32:38;;;;;;;4.20;2.58;;;19.70;50.30;;;;;;5064841;28;20547;-86
2021/09/03 08:35:14;;;;;;;4.25;2.38;;;19.70;50.50;;;;;;5064968;28;20224;-85
2021/09/03 08:37:47;;;;;;;3.88;2.40;;;19.70;50.10;;;;;;5066825;28;20185;-86
2021/09/03 08:40:14;;;;;;;4.28;2.70;;;19.70;50.30;;;;;;5024787;28;20182;-86
2021/09/03 08:42:44;;;;;;;3.63;2.20;;;19.70;50.20;;;;;;5042401;28;20155;-86
2021/09/03 08:45:11;;;;;;;3.53;2.53;;;19.70;50.20;;;;;;5023829;28;20210;-86
2021/09/03 08:47:43;;;;;;;3.35;2.03;;;19.70;50.10;;;;;;5040618;28;20221;-86
2021/09/03 08:50:13;;;;;;;3.70;2.22;;;19.60;49.90;;;;;;5040334;28;20185;-86
2021/09/03 08:52:44;;;;;;;2.60;1.80;;;19.70;50.20;;;;;;5040861;28;20630;-86
2021/09/03 08:55:10;;;;;;;2.75;1.85;;;19.70;49.90;;;;;;5040889;28;20246;-86
2021/09/03 08:57:37;;;;;;;2.90;2.10;;;19.70;49.70;;;;;;5025182;28;20232;-86
2021/09/03 09:00:34;;;;;;;3.25;1.85;;;19.70;49.60;;;;;;5023352;28;20193;-86
2021/09/03 09:03:05;;;;;;;3.60;1.98;;;19.70;49.40;;;;;;5041476;28;20167;-86
2021/09/03 09:05:50;;;;;;;5.57;2.00;;;19.70;49.40;;;;;;5059642;28;20166;-86
2021/09/03 09:08:40;;;;;;;3.55;2.13;;;19.60;49.30;;;;;;5026937;28;20184;-86
2021/09/03 09:11:10;;;;;;;5.00;2.15;;;19.70;49.40;;;;;;5042316;28;20253;-86
2021/09/03 09:13:41;;;;;;;4.00;1.98;;;19.60;49.60;;;;;;5026225;28;20185;-86
2021/09/03 09:16:16;;;;;;;3.65;2.13;;;19.70;49.80;;;;;;5026995;28;20284;-86
2021/09/03 09:18:56;;;;;;;3.05;1.75;;;19.60;49.20;;;;;;5026540;28;20198;-86
2021/09/03 09:21:31;;;;;;;2.35;1.48;;;19.60;49.00;;;;;;5042989;28;20614;-86
2021/09/03 09:24:09;;;;;;;2.60;1.77;;;19.70;48.70;;;;;;5026714;28;20182;-86
2021/09/03 09:26:49;;;;;;;3.03;1.85;;;19.70;49.10;;;;;;5059706;28;20205;-85
2021/09/03 09:29:18;;;;;;;2.85;1.48;;;19.70;48.70;;;;;;5026286;28;20236;-87
2021/09/03 09:31:52;;;;;;;2.65;1.67;;;19.70;48.50;;;;;;5024947;28;20610;-86
2021/09/03 09:34:24;;;;;;;3.97;2.00;;;19.70;48.60;;;;;;5025914;28;20170;-86
2021/09/03 09:36:55;;;;;;;2.65;1.50;;;19.70;48.40;;;;;;5024288;28;20182;-86
2021/09/03 09:39:26;;;;;;;3.05;1.77;;;19.70;48.00;;;;;;5040499;28;20182;-86
2021/09/03 09:42:28;;;;;;;3.25;1.65;;;19.70;47.90;;;;;;5023079;28;20191;-86
2021/09/03 09:45:11;;;;;;;2.45;1.60;;;19.70;47.90;;;;;;5041237;28;20521;-85
2021/09/03 09:47:38;;;;;;;2.03;1.33;;;19.70;47.20;;;;;;5041726;28;20174;-86
2021/09/03 09:50:32;;;;;;;3.08;1.67;;;19.70;47.40;;;;;;5041715;28;20162;-86
2021/09/03 09:53:08;;;;;;;2.05;1.25;;;19.70;47.10;;;;;;5024800;28;20166;-86
2021/09/03 09:55:35;;;;;;;2.67;1.42;;;19.70;46.90;;;;;;5024560;28;20205;-86
2021/09/03 09:58:05;;;;;;;2.55;1.50;;;19.70;47.20;;;;;;5023991;28;20155;-86
2021/09/03 10:00:33;;;;;;;3.13;1.73;;;19.70;47.00;;;;;;5027813;28;20186;-84
2021/09/03 10:03:05;;;;;;;2.33;1.50;;;19.70;47.30;;;;;;5028099;28;20171;-84
2021/09/03 10:05:36;;;;;;;1.88;1.23;;;19.70;47.30;;;;;;5044456;28;20195;-84
2021/09/03 10:08:02;;;;;;;2.92;1.50;;;19.70;47.00;;;;;;5044201;28;20309;-84
2021/09/03 10:10:31;;;;;;;2.50;1.65;;;19.70;47.00;;;;;;5045103;28;20235;-84
2021/09/03 10:12:57;;;;;;;4.47;1.27;;;19.70;47.40;;;;;;5048831;28;20214;-84
2021/09/03 10:15:27;;;;;;;1.80;1.33;;;19.70;46.90;;;;;;5048745;28;20198;-84
2021/09/03 10:18:13;;;;;;;2.08;1.27;;;19.70;46.60;;;;;;5067699;28;20189;-84
2021/09/03 10:21:04;;;;;;;2.13;1.40;;;19.70;46.70;;;;;;5067264;28;20185;-84
2021/09/03 10:23:56;;;;;;;2.47;1.40;;;19.70;46.70;;;;;;5021933;28;20185;-83
2021/09/03 10:26:43;;;;;;;2.97;1.60;;;19.80;46.50;;;;;;5053011;28;20212;-83
2021/09/03 10:29:14;;;;;;;2.83;1.38;;;19.70;46.60;;;;;;5034373;28;20197;-84
2021/09/03 10:32:12;;;;;;;4.28;1.15;;;19.60;46.60;;;;;;5049808;28;20181;-84
2021/09/03 10:34:59;;;;;;;3.00;1.40;;;19.70;46.50;;;;;;5049040;28;20280;-84
2021/09/03 10:37:38;;;;;;;2.97;1.33;;;19.70;46.60;;;;;;5033906;28;20184;-84
2021/09/03 10:40:11;;;;;;;3.40;1.35;;;19.70;46.30;;;;;;5029342;28;20183;-84
2021/09/03 10:42:44;;;;;;;1.85;1.20;;;19.70;46.50;;;;;;5062978;28;20170;-84
2021/09/03 10:45:11;;;;;;;2.20;1.20;;;19.80;46.20;;;;;;5047066;28;20203;-84
2021/09/03 10:48:18;;;;;;;2.17;1.20;;;19.70;45.90;;;;;;5050330;28;20238;-84
2021/09/03 10:50:50;;;;;;;1.48;1.00;;;19.70;45.90;;;;;;5066666;28;20182;-84
2021/09/03 10:53:22;;;;;;;2.15;1.15;;;19.70;45.80;;;;;;5032681;28;20729;-84
2021/09/03 10:56:17;;;;;;;1.42;1.00;;;19.70;45.70;;;;;;5027241;28;20249;-83
2021/09/03 10:58:51;;;;;;;2.00;1.30;;;19.80;45.60;;;;;;5043063;28;20660;-83
2021/09/03 11:01:34;;;;;;;2.35;1.13;;;19.70;45.30;;;;;;5041967;28;20215;-85
2021/09/03 11:04:05;;;;;;;2.20;1.30;;;19.80;45.30;;;;;;5058276;28;20162;-84
2021/09/03 11:06:35;;;;;;;3.92;1.42;;;19.80;45.20;;;;;;5042610;28;20197;-85
2021/09/03 11:09:16;;;;;;;1.52;1.10;;;19.80;45.30;;;;;;5058879;28;20606;-83
2021/09/03 11:11:46;;;;;;;1.38;1.00;;;19.80;45.20;;;;;;5041066;28;20619;-84
2021/09/03 11:14:18;;;;;;;2.65;1.33;;;19.80;45.10;;;;;;5009021;28;20174;-84
2021/09/03 11:16:54;;;;;;;2.03;1.20;;;19.80;45.40;;;;;;5008446;28;20656;-84
2021/09/03 11:19:36;;;;;;;2.05;1.33;;;19.80;45.30;;;;;;5026866;28;20178;-84
2021/09/03 11:22:07;;;;;;;2.05;0.88;;;19.80;45.40;;;;;;5058335;28;20182;-84
2021/09/03 11:24:38;;;;;;;2.15;1.02;;;19.80;45.10;;;;;;5058633;28;20212;-85
2021/09/03 11:27:07;;;;;;;2.90;1.13;;;19.80;44.60;;;;;;5056969;28;20193;-84
2021/09/03 11:29:40;;;;;;;1.70;1.08;;;19.80;44.90;;;;;;5022500;28;20175;-84
2021/09/03 11:32:14;;;;;;;2.22;1.20;;;19.80;44.40;;;;;;5007190;28;20166;-83
2021/09/03 11:34:59;;;;;;;3.30;1.35;;;19.80;44.50;;;;;;5039426;28;20162;-84
2021/09/03 11:37:38;;;;;;;3.50;1.13;;;19.80;44.70;;;;;;5023675;28;20598;-83
2021/09/03 11:40:12;;;;;;;2.83;1.30;;;19.80;44.70;;;;;;5022682;28;20182;-83
2021/09/03 11:42:45;;;;;;;2.08;1.15;;;19.80;44.20;;;;;;5037654;28;20189;-83
2021/09/03 11:45:17;;;;;;;2.05;1.45;;;19.90;44.10;;;;;;5039085;28;20653;-83
2021/09/03 11:47:58;;;;;;;2.13;1.05;;;19.90;44.20;;;;;;5022283;28;20198;-83
2021/09/03 11:50:36;;;;;;;2.20;1.08;;;19.90;44.10;;;;;;5039617;28;20157;-83
2021/09/03 11:53:08;;;;;;;1.52;0.85;;;19.90;44.00;;;;;;5021379;28;20154;-84
2021/09/03 11:55:36;;;;;;;1.88;1.02;;;19.90;43.90;;;;;;5052596;28;20278;-83
2021/09/03 11:58:07;;;;;;;1.90;0.90;;;19.90;43.80;;;;;;5021429;28;20170;-83
2021/09/03 12:00:39;;;;;;;2.40;1.08;;;19.80;43.50;;;;;;5040031;28;20181;-83
2021/09/03 12:03:07;;;;;;;2.30;1.08;;;19.70;43.50;;;;;;5023580;28;20162;-83
2021/09/03 12:05:38;;;;;;;1.35;1.00;;;19.80;43.30;;;;;;5040950;28;20555;-83
2021/09/03 12:08:08;;;;;;;1.40;1.00;;;19.80;43.60;;;;;;5070929;28;20183;-83
2021/09/03 12:10:40;;;;;;;2.00;1.23;;;19.80;43.60;;;;;;5041005;28;20253;-83
2021/09/03 12:13:08;;;;;;;2.30;0.90;;;19.80;43.90;;;;;;5057745;28;20167;-83
2021/09/03 12:15:34;;;;;;;1.27;1.00;;;19.80;43.80;;;;;;5057049;28;20245;-85
2021/09/03 12:17:59;;;;;;;1.55;1.27;;;19.80;44.10;;;;;;5039571;28;20166;-84
2021/09/03 12:20:25;;;;;;;2.40;1.33;;;19.80;43.70;;;;;;5040769;28;20629;-83
2021/09/03 12:22:53;;;;;;;3.40;0.98;;;19.70;43.70;;;;;;5057817;28;20175;-84
2021/09/03 12:25:29;;;;;;;1.17;0.80;;;19.80;43.30;;;;;;5043752;28;20660;-84
2021/09/03 12:28:09;;;;;;;2.08;1.02;;;19.80;43.40;;;;;;5043640;28;20224;-83
2021/09/03 12:30:35;;;;;;;1.48;0.80;;;19.90;43.40;;;;;;5058751;28;20613;-84
2021/09/03 12:33:24;;;;;;;1.95;1.05;;;19.90;43.60;;;;;;5041922;28;20161;-83
2021/09/03 12:35:53;;;;;;;4.72;1.10;;;19.90;42.90;;;;;;5043353;28;20209;-83
2021/09/03 12:38:33;;;;;;;4.78;0.90;;;19.90;43.40;;;;;;5061217;28;20154;-83
2021/09/03 12:41:04;;;;;;;1.77;1.17;;;19.90;43.30;;;;;;5060810;28;20705;-85
2021/09/03 12:43:31;;;;;;;1.77;1.10;;;19.90;43.30;;;;;;5059433;28;20174;-83
2021/09/03 12:46:16;;;;;;;1.60;1.10;;;19.90;43.20;;;;;;5041535;28;20596;-83
2021/09/03 12:48:58;;;;;;;2.05;1.20;;;19.90;43.50;;;;;;5042682;28;20632;-84
2021/09/03 12:51:25;;;;;;;2.60;1.10;;;19.90;43.20;;;;;;5058517;28;20189;-84
2021/09/03 12:53:51;;;;;;;1.90;1.20;;;19.80;43.30;;;;;;5054523;28;20269;-83
2021/09/03 12:56:17;;;;;;;1.23;0.90;;;19.80;43.40;;;;;;5055914;28;20243;-85
2021/09/03 12:58:43;;;;;;;1.17;0.80;;;19.90;43.00;;;;;;5057080;28;20142;-84